Time;durP1;ratioP1;P1;durP2;ratioP2;P2;SDS_P1;SDS_P2;PMS_P1;PMS_P2;Temp;Humidity;BMP_temperature;BMP_pressure;BME280_temperature;BME280_humidity;BME280_pressure;Samples;Min_cycle;Max_cycle;Signal;HPM_P1;HPM_P2
2022/04/26 04:15:47;;;;;;;2.05;1.95;;;7.50;99.90;;;;;;4899610;29;20287;-65
2022/04/26 04:20:55;;;;;;;2.15;2.10;;;7.60;99.90;;;;;;4900905;29;20209;-68
2022/04/26 04:23:22;;;;;;;2.00;1.55;;;7.60;99.90;;;;;;4901026;29;20233;-67
2022/04/26 04:25:50;;;;;;;1.70;1.70;;;7.60;99.90;;;;;;4901120;29;20206;-63
2022/04/26 04:28:16;;;;;;;1.70;1.70;;;7.60;99.90;;;;;;4901306;29;20293;-63
2022/04/26 04:30:43;;;;;;;1.63;1.63;;;7.60;99.90;;;;;;4901411;29;20296;-63
2022/04/26 04:33:12;;;;;;;1.45;1.45;;;7.60;99.90;;;;;;4901329;29;20296;-64
2022/04/26 04:35:38;;;;;;;1.50;1.50;;;7.60;99.90;;;;;;4903236;29;20633;-63
2022/04/26 04:38:05;;;;;;;1.48;1.48;;;7.60;99.90;;;;;;4902406;29;20305;-62
2022/04/26 04:40:32;;;;;;;1.40;1.40;;;7.60;99.90;;;;;;4903118;29;20628;-62
2022/04/26 04:42:59;;;;;;;1.50;1.50;;;7.60;99.90;;;;;;4903841;29;20289;-62
2022/04/26 04:45:26;;;;;;;1.40;1.40;;;7.50;99.90;;;;;;4901303;29;20670;-64
2022/04/26 04:47:53;;;;;;;1.30;1.30;;;7.50;99.90;;;;;;4900911;29;20233;-62
2022/04/26 04:50:21;;;;;;;1.05;1.05;;;7.50;99.90;;;;;;4900909;29;20648;-63
2022/04/26 04:52:48;;;;;;;1.20;1.20;;;7.50;99.90;;;;;;4900863;29;20345;-63
2022/04/26 04:55:15;;;;;;;1.10;1.10;;;7.50;99.90;;;;;;4900657;29;20252;-64
2022/04/26 04:57:42;;;;;;;1.10;1.10;;;7.50;99.90;;;;;;4901353;29;20330;-68
2022/04/26 05:00:10;;;;;;;1.00;1.00;;;7.50;99.90;;;;;;4900561;29;20654;-68
2022/04/26 05:02:37;;;;;;;0.95;0.95;;;7.40;99.90;;;;;;4900795;29;20294;-68
2022/04/26 05:05:04;;;;;;;1.10;1.10;;;7.40;99.90;;;;;;4900153;29;20326;-68
2022/04/26 05:07:33;;;;;;;1.20;1.20;;;7.30;99.90;;;;;;4900725;29;20241;-67
2022/04/26 05:10:00;;;;;;;1.20;1.20;;;7.30;99.90;;;;;;4900677;29;20293;-67
2022/04/26 05:12:26;;;;;;;1.30;1.30;;;7.30;99.90;;;;;;4900569;29;20305;-67
2022/04/26 05:14:53;;;;;;;1.10;1.10;;;7.20;99.90;;;;;;4900219;29;20320;-67
2022/04/26 05:17:20;;;;;;;1.50;1.50;;;7.20;99.90;;;;;;4899248;29;20737;-67
2022/04/26 05:19:47;;;;;;;1.63;1.52;;;7.10;99.90;;;;;;4900423;29;20329;-66
2022/04/26 10:48:31;;;;;;;3.50;3.30;;;11.50;99.90;;;;;;5577176;23;20722;-66
2022/04/26 10:51:16;;;;;;;2.90;2.80;;;11.30;99.90;;;;;;4936437;29;20295;-66
2022/04/26 10:53:45;;;;;;;4.13;3.83;;;11.30;99.90;;;;;;4936754;29;20279;-66
2022/04/26 10:56:12;;;;;;;3.75;3.55;;;11.40;99.90;;;;;;4936382;29;20213;-66
2022/04/26 10:58:51;;;;;;;4.75;4.00;;;11.40;99.90;;;;;;4927045;29;20320;-66
2022/04/26 11:01:19;;;;;;;4.05;3.67;;;11.60;99.90;;;;;;4917235;29;20216;-66
2022/04/26 11:03:55;;;;;;;3.50;3.30;;;11.70;99.90;;;;;;4919519;29;20232;-66
2022/04/26 11:06:35;;;;;;;3.80;3.50;;;11.80;99.90;;;;;;4917780;29;20196;-66
2022/04/26 11:09:09;;;;;;;4.47;3.85;;;11.90;99.90;;;;;;4917496;29;20233;-66
2022/04/26 11:11:49;;;;;;;3.83;3.45;;;11.80;99.90;;;;;;4917430;29;20351;-66
2022/04/26 11:14:17;;;;;;;3.60;3.40;;;11.60;99.90;;;;;;4917451;29;20292;-66
2022/04/26 11:16:55;;;;;;;3.15;3.05;;;11.50;99.90;;;;;;4917404;29;20206;-66
2022/04/26 11:19:29;;;;;;;2.72;2.63;;;11.30;99.90;;;;;;4916889;29;20715;-66
2022/04/26 11:21:58;;;;;;;3.10;2.90;;;11.20;99.90;;;;;;4917011;29;20201;-66
2022/04/26 11:29:58;;;;;;;2.67;2.58;;;10.90;99.90;;;;;;4917584;29;20185;-66
2022/04/26 11:32:30;;;;;;;3.13;2.97;;;10.90;99.90;;;;;;4916969;29;20291;-67
2022/04/26 11:34:58;;;;;;;3.97;2.80;;;10.70;99.90;;;;;;4916937;29;20582;-66
2022/04/26 11:37:25;;;;;;;3.47;3.20;;;10.50;99.90;;;;;;4917052;29;20752;-66
2022/04/26 11:39:53;;;;;;;2.67;2.53;;;10.10;99.90;;;;;;4917277;29;20324;-67
2022/04/26 11:42:21;;;;;;;2.20;1.98;;;9.30;99.90;;;;;;4917309;29;20292;-66
2022/04/26 11:45:01;;;;;;;2.15;2.05;;;8.70;99.90;;;;;;4917305;29;20240;-65
2022/04/26 11:47:39;;;;;;;2.58;2.47;;;7.90;99.90;;;;;;4917147;29;20276;-65
2022/04/26 11:50:12;;;;;;;2.42;2.33;;;7.10;99.90;;;;;;4917300;29;20209;-65
2022/04/26 11:52:40;;;;;;;2.47;2.38;;;6.40;99.90;;;;;;4917635;29;20284;-65
2022/04/26 11:55:08;;;;;;;3.17;2.70;;;6.00;99.90;;;;;;4917091;29;20740;-65
2022/04/26 11:57:35;;;;;;;2.83;2.67;;;5.80;99.90;;;;;;4917445;29;20284;-66
2022/04/26 12:00:04;;;;;;;3.38;3.17;;;5.60;99.90;;;;;;4917269;29;20720;-66
2022/04/26 12:02:34;;;;;;;3.55;3.33;;;5.50;99.90;;;;;;4917217;29;20265;-66
2022/04/26 12:05:01;;;;;;;3.45;3.25;;;5.40;99.90;;;;;;4917409;29;20201;-66
2022/04/26 12:07:32;;;;;;;3.50;3.20;;;5.30;99.90;;;;;;4917100;29;20216;-66
2022/04/26 12:10:00;;;;;;;4.00;3.40;;;5.30;99.90;;;;;;4917118;29;20202;-66
2022/04/26 12:12:29;;;;;;;3.15;2.95;;;5.30;99.90;;;;;;4917292;29;20576;-66
2022/04/26 12:14:57;;;;;;;3.97;2.92;;;5.30;99.90;;;;;;4920377;29;20704;-66
2022/04/26 12:17:29;;;;;;;4.25;3.95;;;5.30;99.90;;;;;;4920720;29;20300;-66
2022/04/26 12:19:57;;;;;;;3.35;3.15;;;5.30;99.90;;;;;;4920380;29;20221;-66
2022/04/26 12:22:26;;;;;;;3.25;3.10;;;5.40;99.90;;;;;;4920656;29;20281;-67
2022/04/26 12:24:55;;;;;;;2.30;2.20;;;5.40;99.90;;;;;;4920506;29;20252;-65
2022/04/26 12:27:25;;;;;;;2.67;2.50;;;5.40;99.90;;;;;;4920556;29;20687;-66
2022/04/26 12:29:52;;;;;;;2.55;2.45;;;5.60;99.90;;;;;;4920472;29;20224;-66
2022/04/26 12:32:23;;;;;;;2.30;2.20;;;5.70;99.90;;;;;;4920308;29;20205;-66
2022/04/26 12:34:51;;;;;;;3.50;3.30;;;5.80;99.90;;;;;;4920431;29;20257;-66
2022/04/26 12:37:21;;;;;;;2.63;2.53;;;5.90;99.90;;;;;;4920099;29;20617;-66
2022/04/26 12:39:51;;;;;;;2.90;2.80;;;6.00;99.90;;;;;;4920168;29;20644;-66
2022/04/26 12:42:31;;;;;;;2.40;2.30;;;6.10;99.90;;;;;;4920026;29;20669;-66
2022/04/26 12:45:00;;;;;;;2.78;2.58;;;6.30;99.90;;;;;;4919950;29;20193;-66
2022/04/26 12:50:35;;;;;;;4.93;3.63;;;6.90;99.90;;;;;;4919797;29;20207;-65
2022/04/26 12:53:05;;;;;;;3.03;2.92;;;7.10;99.90;;;;;;4920203;29;20531;-65
2022/04/26 12:55:34;;;;;;;2.92;2.83;;;7.40;99.90;;;;;;4920439;29;20209;-65
2022/04/26 12:58:05;;;;;;;2.83;2.60;;;7.60;99.90;;;;;;4920083;29;20277;-66
2022/04/26 13:00:34;;;;;;;2.33;2.22;;;7.60;99.90;;;;;;4919732;29;20240;-66
2022/04/26 13:03:02;;;;;;;2.50;2.40;;;7.60;99.90;;;;;;4919978;29;20248;-65
2022/04/26 13:05:35;;;;;;;2.58;2.47;;;7.50;99.90;;;;;;4919801;29;20230;-65
2022/04/26 13:08:02;;;;;;;2.17;2.17;;;7.50;99.90;;;;;;4920500;29;20316;-65
2022/04/26 13:10:29;;;;;;;2.28;2.17;;;7.50;99.90;;;;;;4919707;29;20669;-65
2022/04/26 13:12:57;;;;;;;2.67;2.47;;;7.60;99.90;;;;;;4919637;29;20669;-68
2022/04/26 13:15:27;;;;;;;2.60;2.40;;;7.80;99.90;;;;;;4919452;29;20685;-66
2022/04/26 13:17:54;;;;;;;2.28;2.17;;;8.10;99.90;;;;;;4919347;29;20225;-66
2022/04/26 13:20:21;;;;;;;2.40;2.30;;;8.40;99.90;;;;;;4919669;29;20220;-65
2022/04/26 13:22:48;;;;;;;2.80;2.20;;;8.80;99.90;;;;;;4919797;29;20292;-66
2022/04/26 13:25:16;;;;;;;1.77;1.77;;;8.90;99.90;;;;;;4918999;29;20312;-67
2022/04/26 13:27:45;;;;;;;1.80;1.80;;;9.10;99.90;;;;;;4919887;29;20209;-65
2022/04/26 13:30:12;;;;;;;1.95;1.85;;;9.10;99.90;;;;;;4919582;29;20257;-66
2022/04/26 13:32:41;;;;;;;2.35;2.25;;;9.20;99.90;;;;;;4921195;29;20300;-65
2022/04/26 13:35:08;;;;;;;1.95;1.85;;;9.30;99.90;;;;;;4920606;29;20211;-65
2022/04/26 13:37:38;;;;;;;2.30;2.20;;;9.40;99.90;;;;;;4920685;29;20257;-65
2022/04/26 13:40:07;;;;;;;2.20;2.10;;;9.60;99.90;;;;;;4920174;29;20699;-66
2022/04/26 13:42:35;;;;;;;1.98;1.98;;;9.70;99.90;;;;;;4919579;29;20205;-66
2022/04/26 13:45:02;;;;;;;3.03;2.50;;;9.80;99.90;;;;;;4920832;29;20235;-65
2022/04/26 13:47:29;;;;;;;3.65;3.40;;;9.70;99.90;;;;;;4919252;29;20293;-65
2022/04/26 13:49:57;;;;;;;5.13;4.72;;;9.50;99.90;;;;;;4918561;29;20265;-65
2022/04/26 13:52:24;;;;;;;5.57;5.13;;;9.20;99.90;;;;;;4919358;29;20300;-66
2022/04/26 13:54:51;;;;;;;4.88;4.53;;;8.90;99.90;;;;;;4919059;29;20297;-66
2022/04/26 13:57:18;;;;;;;4.65;4.25;;;8.60;99.90;;;;;;4918839;29;20300;-66
2022/04/26 13:59:46;;;;;;;4.97;4.60;;;8.40;99.90;;;;;;4918345;29;20297;-61
2022/04/26 14:02:13;;;;;;;4.88;4.43;;;8.20;99.90;;;;;;4918608;29;20296;-61
2022/04/26 14:04:40;;;;;;;4.90;4.50;;;8.20;99.90;;;;;;4918600;29;20756;-61
2022/04/26 14:07:09;;;;;;;4.80;4.50;;;8.30;99.90;;;;;;4919403;29;20295;-61
2022/04/26 14:09:36;;;;;;;6.20;5.25;;;8.40;99.90;;;;;;4918792;29;20308;-61
2022/04/26 14:12:03;;;;;;;4.88;4.47;;;8.50;99.90;;;;;;4919109;29;20300;-61
2022/04/26 14:22:45;;;;;;;6.10;5.47;;;9.00;99.90;;;;;;4918752;29;20212;-61
2022/04/26 14:25:13;;;;;;;4.82;4.45;;;9.10;99.90;;;;;;4919348;29;20212;-61
2022/04/26 14:27:42;;;;;;;5.13;4.75;;;9.20;99.90;;;;;;4918768;29;20229;-60
2022/04/26 14:30:10;;;;;;;4.90;4.60;;;9.30;99.90;;;;;;4918782;29;20224;-60
2022/04/26 14:32:37;;;;;;;5.13;4.72;;;9.40;99.90;;;;;;4918019;29;20296;-60
2022/04/26 14:35:06;;;;;;;6.32;5.72;;;9.50;99.90;;;;;;4918088;29;20291;-60
2022/04/26 14:37:33;;;;;;;5.78;5.32;;;9.60;99.90;;;;;;4917166;29;20296;-60
2022/04/26 14:40:01;;;;;;;4.85;4.45;;;9.50;99.90;;;;;;4918077;29;20320;-60
2022/04/26 14:42:28;;;;;;;5.38;4.97;;;9.50;99.90;;;;;;4917839;29;20213;-60
2022/04/26 14:44:56;;;;;;;5.90;5.45;;;9.50;99.90;;;;;;4917747;29;20209;-60
2022/04/26 14:47:26;;;;;;;5.78;5.28;;;9.60;99.90;;;;;;4917764;29;20300;-60
2022/04/26 14:49:53;;;;;;;4.97;4.68;;;9.60;99.90;;;;;;4917597;29;20229;-61
2022/04/26 14:52:21;;;;;;;4.18;3.97;;;9.70;99.90;;;;;;4918033;29;20295;-61
2022/04/26 14:54:48;;;;;;;4.32;4.03;;;9.70;99.90;;;;;;4917992;29;20209;-61
2022/04/26 14:57:17;;;;;;;5.15;4.75;;;9.80;99.90;;;;;;4918000;29;20304;-61
2022/04/26 14:59:46;;;;;;;5.03;4.57;;;9.90;99.90;;;;;;4917608;29;20229;-61
2022/04/26 15:02:13;;;;;;;3.97;3.72;;;10.00;99.90;;;;;;4917709;29;20211;-60
2022/04/26 15:04:40;;;;;;;3.70;3.50;;;10.10;99.90;;;;;;4917722;29;20300;-67
2022/04/26 15:07:07;;;;;;;3.60;3.35;;;10.20;99.90;;;;;;4917681;29;20308;-69
2022/04/26 15:09:51;;;;;;;3.75;3.40;;;10.30;99.90;;;;;;4917455;29;20328;-69
2022/04/26 15:17:50;;;;;;;4.03;3.72;;;10.50;99.90;;;;;;4917459;29;20193;-68
2022/04/26 15:20:18;;;;;;;4.50;4.15;;;10.50;99.90;;;;;;4917060;29;20592;-68
2022/04/26 15:22:46;;;;;;;3.88;3.58;;;10.40;99.90;;;;;;4917169;29;20205;-68
2022/04/26 15:25:13;;;;;;;3.22;3.13;;;10.30;99.90;;;;;;4917518;29;20629;-68
2022/04/26 15:27:42;;;;;;;3.45;3.35;;;10.20;99.90;;;;;;4917479;29;20288;-68
2022/04/26 15:30:11;;;;;;;3.70;3.50;;;10.10;99.90;;;;;;4917373;29;20224;-68
2022/04/26 15:32:38;;;;;;;4.60;4.30;;;10.00;99.90;;;;;;4917320;29;20265;-68
2022/04/26 15:35:06;;;;;;;4.65;4.15;;;9.90;99.90;;;;;;4917373;29;20288;-68
2022/04/26 15:37:33;;;;;;;6.55;5.95;;;9.90;99.90;;;;;;4916947;29;20295;-68
2022/04/26 15:40:00;;;;;;;5.32;4.93;;;9.80;99.90;;;;;;4916917;29;20308;-68
2022/04/26 15:42:27;;;;;;;7.13;6.43;;;9.70;99.90;;;;;;4917122;29;20257;-68
2022/04/26 15:44:55;;;;;;;5.85;5.38;;;9.50;99.90;;;;;;4916978;29;20616;-68
2022/04/26 15:47:22;;;;;;;4.68;4.28;;;9.30;99.90;;;;;;4918199;29;20288;-69
2022/04/26 15:49:49;;;;;;;4.28;4.00;;;9.10;99.90;;;;;;4920727;29;20340;-68
2022/04/26 15:52:16;;;;;;;4.20;3.80;;;8.90;99.90;;;;;;4920778;29;20776;-68
2022/04/26 15:54:43;;;;;;;3.50;3.30;;;8.90;99.90;;;;;;4921044;29;20288;-67
2022/04/26 15:57:11;;;;;;;3.42;3.22;;;8.90;99.90;;;;;;4920841;29;20201;-67
2022/04/26 15:59:39;;;;;;;3.65;3.45;;;8.90;99.90;;;;;;4920706;29;20225;-68
2022/04/26 16:02:08;;;;;;;3.55;3.35;;;9.00;99.90;;;;;;4920645;29;20681;-69
2022/04/26 16:04:36;;;;;;;3.63;3.33;;;9.10;99.90;;;;;;4920850;29;20313;-69
2022/04/26 16:07:03;;;;;;;3.53;3.28;;;9.20;99.90;;;;;;4920923;29;20543;-68
2022/04/26 16:20:29;;;;;;;7.38;5.07;;;9.40;99.90;;;;;;4920654;29;20217;-68
2022/04/26 16:22:56;;;;;;;6.95;4.45;;;9.30;99.90;;;;;;4920653;29;20237;-68
2022/04/26 16:25:23;;;;;;;5.93;4.70;;;9.40;99.90;;;;;;4920129;29;20643;-68
2022/04/26 16:27:50;;;;;;;4.70;4.30;;;9.50;99.90;;;;;;4920389;29;20568;-68
2022/04/26 16:30:18;;;;;;;4.60;4.25;;;9.50;99.90;;;;;;4920448;29;20284;-70
2022/04/26 16:32:46;;;;;;;3.80;3.45;;;9.40;99.90;;;;;;4920384;29;20296;-69
2022/04/26 16:35:13;;;;;;;4.28;3.97;;;9.40;99.90;;;;;;4920341;29;20284;-70
2022/04/26 16:37:40;;;;;;;3.95;3.63;;;9.40;99.90;;;;;;4920190;29;20288;-69
2022/04/26 16:40:09;;;;;;;3.75;3.47;;;9.40;99.90;;;;;;4919840;29;20656;-69
2022/04/26 16:42:36;;;;;;;3.47;3.28;;;9.40;99.90;;;;;;4920122;29;20213;-68
2022/04/26 16:45:04;;;;;;;2.78;2.67;;;9.40;99.90;;;;;;4920066;29;20301;-68
2022/04/26 16:47:31;;;;;;;2.65;2.55;;;9.50;99.90;;;;;;4920016;29;20292;-69
2022/04/26 16:49:59;;;;;;;2.90;2.80;;;9.50;99.90;;;;;;4920041;29;20213;-69
2022/04/26 16:52:26;;;;;;;3.35;3.15;;;9.60;99.90;;;;;;4919883;29;20210;-68
2022/04/26 16:54:53;;;;;;;3.55;3.35;;;9.60;99.90;;;;;;4919818;29;20761;-68
2022/04/26 16:57:20;;;;;;;3.83;3.63;;;9.60;99.90;;;;;;4919837;29;20220;-69
2022/04/26 16:59:47;;;;;;;3.65;3.45;;;9.60;99.90;;;;;;4918773;29;20312;-68
2022/04/26 17:02:15;;;;;;;3.70;3.42;;;9.50;99.90;;;;;;4919817;29;20213;-68
2022/04/26 17:04:42;;;;;;;3.85;3.55;;;9.50;99.90;;;;;;4919878;29;20216;-69
2022/04/26 17:07:10;;;;;;;3.40;3.20;;;9.40;99.90;;;;;;4919750;29;20296;-68
2022/04/26 17:09:37;;;;;;;2.90;2.70;;;9.40;99.90;;;;;;4919220;29;20233;-68
2022/04/26 17:12:05;;;;;;;4.35;3.70;;;9.40;99.90;;;;;;4919723;29;20573;-69
2022/04/26 17:14:35;;;;;;;3.00;2.90;;;9.40;99.90;;;;;;4919690;29;20212;-68
2022/04/26 17:17:02;;;;;;;3.17;2.97;;;9.30;99.90;;;;;;4919931;29;20212;-67
2022/04/26 17:19:29;;;;;;;2.78;2.67;;;9.30;99.90;;;;;;4919899;29;20259;-68
2022/04/26 17:21:56;;;;;;;2.75;2.65;;;9.30;99.90;;;;;;4919686;29;20208;-68
2022/04/26 17:27:08;;;;;;;3.33;3.05;;;9.20;99.90;;;;;;4899675;29;20206;-68
2022/04/26 17:29:35;;;;;;;2.97;2.83;;;9.20;99.90;;;;;;4921469;29;20221;-69
2022/04/26 17:32:03;;;;;;;2.40;2.30;;;9.10;99.90;;;;;;4920055;29;20296;-68
2022/04/26 17:34:29;;;;;;;2.80;2.70;;;9.10;99.90;;;;;;4919264;29;20653;-68
2022/04/26 17:36:56;;;;;;;2.90;2.80;;;9.10;99.90;;;;;;4919104;29;20300;-68
2022/04/26 17:39:25;;;;;;;2.58;2.40;;;9.20;99.90;;;;;;4919035;29;20316;-68
2022/04/26 17:41:55;;;;;;;2.75;2.65;;;9.20;99.90;;;;;;4918750;29;20226;-68
2022/04/26 17:44:22;;;;;;;2.40;2.30;;;9.10;99.90;;;;;;4919069;29;20193;-68
2022/04/26 17:46:49;;;;;;;3.10;3.00;;;9.10;99.90;;;;;;4918909;29;20247;-68
2022/04/26 17:49:16;;;;;;;2.80;2.70;;;9.00;99.90;;;;;;4918828;29;20229;-68
2022/04/26 17:51:43;;;;;;;3.13;2.97;;;9.00;99.90;;;;;;4919018;29;20278;-71
2022/04/26 17:56:55;;;;;;;3.05;2.88;;;8.80;99.90;;;;;;4918997;29;20209;-68
2022/04/26 17:59:22;;;;;;;3.90;3.63;;;8.70;99.90;;;;;;4918646;29;20316;-68
2022/04/26 18:01:49;;;;;;;3.50;3.22;;;8.60;99.90;;;;;;4918678;29;20220;-68
2022/04/26 18:04:16;;;;;;;2.90;2.80;;;8.50;99.90;;;;;;4918569;29;20292;-66
2022/04/26 18:06:43;;;;;;;3.38;3.17;;;8.50;99.90;;;;;;4918484;29;20292;-67
2022/04/26 18:09:09;;;;;;;2.40;2.30;;;8.40;99.90;;;;;;4918444;29;20320;-68
2022/04/26 18:11:36;;;;;;;2.17;2.08;;;8.30;99.90;;;;;;4918204;29;20288;-66
2022/04/26 18:14:05;;;;;;;2.63;2.42;;;8.20;99.90;;;;;;4918009;29;20576;-68
2022/04/26 18:16:32;;;;;;;2.05;2.05;;;8.20;99.90;;;;;;4918086;29;20216;-68
2022/04/26 18:19:03;;;;;;;2.75;2.65;;;8.10;99.90;;;;;;4917894;29;20316;-68
2022/04/26 18:21:30;;;;;;;4.93;4.53;;;8.10;99.90;;;;;;4917853;29;20637;-68
2022/04/26 18:23:57;;;;;;;6.45;5.38;;;8.00;99.90;;;;;;4918232;29;20297;-68
2022/04/26 18:26:24;;;;;;;4.65;4.32;;;7.90;99.90;;;;;;4917805;29;20547;-68
2022/04/26 18:28:53;;;;;;;4.50;4.20;;;7.70;99.90;;;;;;4917877;29;20316;-68
2022/04/26 18:31:22;;;;;;;4.25;3.95;;;7.60;99.90;;;;;;4918286;29;20207;-67
2022/04/26 18:33:50;;;;;;;4.47;4.13;;;7.50;99.90;;;;;;4917763;29;20672;-66
2022/04/26 18:36:18;;;;;;;3.67;3.47;;;7.40;99.90;;;;;;4917720;29;20296;-66
2022/04/26 18:38:48;;;;;;;3.03;2.92;;;7.30;99.90;;;;;;4917889;29;20225;-68
2022/04/26 18:41:15;;;;;;;3.00;2.90;;;7.20;99.90;;;;;;4917871;29;20275;-67
2022/04/26 18:43:42;;;;;;;3.10;2.90;;;7.10;99.90;;;;;;4918012;29;20281;-68
2022/04/26 18:46:11;;;;;;;3.58;3.38;;;7.00;99.90;;;;;;4917837;29;20269;-68
2022/04/26 18:48:41;;;;;;;2.55;2.45;;;7.00;99.90;;;;;;4917528;29;20225;-68
2022/04/26 18:51:08;;;;;;;2.40;2.30;;;6.90;99.90;;;;;;4917665;29;20213;-68
2022/04/26 18:53:36;;;;;;;2.60;2.50;;;6.90;99.90;;;;;;4917759;29;20296;-68
2022/04/26 18:56:03;;;;;;;2.35;2.25;;;6.80;99.90;;;;;;4917600;29;20193;-68
2022/04/26 18:58:30;;;;;;;2.33;2.22;;;6.80;99.90;;;;;;4917606;29;20320;-68
2022/04/26 19:00:59;;;;;;;2.40;2.30;;;6.70;99.90;;;;;;4917376;29;20667;-68
2022/04/26 19:03:26;;;;;;;1.90;1.90;;;6.60;99.90;;;;;;4918327;29;20300;-68
2022/04/26 19:05:56;;;;;;;1.88;1.88;;;6.50;99.90;;;;;;4918135;29;20236;-68
2022/04/26 19:08:25;;;;;;;2.03;1.92;;;6.50;99.90;;;;;;4918289;29;20268;-68
2022/04/26 19:13:37;;;;;;;1.60;1.60;;;6.30;99.90;;;;;;4922054;29;20191;-68
2022/04/26 19:16:06;;;;;;;1.70;1.70;;;6.20;99.90;;;;;;4924120;29;20201;-69
2022/04/26 19:18:33;;;;;;;2.10;2.00;;;6.10;99.90;;;;;;4919644;29;20734;-69
2022/04/26 19:21:02;;;;;;;1.90;1.80;;;6.00;99.90;;;;;;4918844;29;20312;-68
2022/04/26 19:23:30;;;;;;;1.55;1.55;;;6.00;99.90;;;;;;4918648;29;20209;-68
2022/04/26 19:25:59;;;;;;;1.70;1.70;;;5.90;99.90;;;;;;4919871;29;20209;-68
2022/04/26 19:28:26;;;;;;;2.10;2.08;;;5.80;99.90;;;;;;4920153;29;20724;-68
2022/04/26 19:30:53;;;;;;;1.45;1.45;;;5.80;99.90;;;;;;4919757;29;20288;-68
2022/04/26 19:33:20;;;;;;;2.00;1.98;;;5.60;99.90;;;;;;4918971;29;20296;-68
2022/04/26 19:35:48;;;;;;;1.73;1.73;;;5.70;99.90;;;;;;4918514;29;20232;-67
2022/04/26 19:38:18;;;;;;;1.65;1.65;;;5.80;99.90;;;;;;4918578;29;20224;-68
2022/04/26 19:40:45;;;;;;;1.48;1.48;;;5.70;99.90;;;;;;4918020;29;20228;-68
2022/04/26 19:43:13;;;;;;;2.05;1.95;;;5.70;99.90;;;;;;4918273;29;20687;-68
2022/04/26 19:45:40;;;;;;;1.75;1.75;;;5.80;99.90;;;;;;4918052;29;20213;-67
2022/04/26 19:48:08;;;;;;;1.90;1.80;;;5.80;99.90;;;;;;4918543;29;20253;-68
2022/04/26 19:53:22;;;;;;;1.70;1.70;;;5.80;99.90;;;;;;4918535;29;20234;-68
2022/04/26 19:55:48;;;;;;;2.05;1.95;;;5.90;99.90;;;;;;4917528;29;20260;-68
2022/04/26 19:58:15;;;;;;;1.60;1.60;;;5.80;99.90;;;;;;4917395;29;20303;-68
2022/04/26 20:00:42;;;;;;;2.00;1.90;;;5.90;99.90;;;;;;4916981;29;20320;-67
2022/04/26 20:03:09;;;;;;;2.67;2.58;;;5.80;99.90;;;;;;4917361;29;20225;-67
2022/04/26 20:05:36;;;;;;;2.17;2.13;;;5.90;99.90;;;;;;4917895;29;20296;-67
2022/04/26 20:08:04;;;;;;;2.83;2.72;;;5.80;99.90;;;;;;4917203;29;20583;-69
2022/04/26 20:10:32;;;;;;;2.15;2.05;;;5.80;99.90;;;;;;4916935;29;20236;-69
2022/04/26 20:12:59;;;;;;;2.13;2.13;;;5.80;99.90;;;;;;4918086;29;20240;-69
2022/04/26 20:15:26;;;;;;;1.98;1.98;;;5.90;99.90;;;;;;4917504;29;20202;-69
2022/04/26 20:17:53;;;;;;;2.20;2.10;;;5.80;99.90;;;;;;4917734;29;20716;-69
2022/04/26 20:20:20;;;;;;;1.80;1.80;;;5.90;99.90;;;;;;4918832;29;20212;-69
2022/04/26 20:22:47;;;;;;;2.10;2.10;;;5.90;99.90;;;;;;4918782;29;20297;-69
2022/04/26 20:25:14;;;;;;;1.70;1.60;;;5.90;99.90;;;;;;4917365;29;20639;-69
2022/04/26 20:30:41;;;;;;;2.10;2.00;;;5.90;99.90;;;;;;4877394;29;20199;-69
2022/04/26 20:33:08;;;;;;;2.30;2.20;;;5.90;99.90;;;;;;4877790;29;20306;-69
2022/04/26 20:35:36;;;;;;;2.00;1.90;;;6.00;99.90;;;;;;4898141;29;20201;-69
2022/04/26 20:38:06;;;;;;;3.00;2.80;;;5.90;99.90;;;;;;4920280;29;20593;-67
2022/04/26 20:40:33;;;;;;;3.17;2.97;;;5.90;99.90;;;;;;4920743;29;20220;-67
2022/04/26 20:43:01;;;;;;;2.92;2.67;;;5.80;99.90;;;;;;4920579;29;20292;-66
2022/04/26 20:45:29;;;;;;;2.45;2.35;;;6.00;99.90;;;;;;4920264;29;20296;-67
2022/04/26 20:47:56;;;;;;;2.53;2.38;;;5.90;99.90;;;;;;4919987;29;20701;-67
2022/04/26 20:50:23;;;;;;;2.30;2.20;;;5.90;99.90;;;;;;4919993;29;20241;-67
2022/04/26 20:52:50;;;;;;;2.20;2.10;;;5.90;99.90;;;;;;4920520;29;20284;-67
2022/04/26 20:55:17;;;;;;;2.22;2.13;;;5.90;99.90;;;;;;4920255;29;20248;-67
2022/04/26 20:57:46;;;;;;;2.33;2.22;;;5.90;99.90;;;;;;4919857;29;20296;-66
2022/04/26 21:00:15;;;;;;;2.40;2.30;;;5.90;99.90;;;;;;4920023;29;20202;-66
2022/04/26 21:02:42;;;;;;;2.30;2.20;;;5.90;99.90;;;;;;4919405;29;20316;-66
2022/04/26 21:05:09;;;;;;;2.25;2.15;;;5.80;99.90;;;;;;4919776;29;20240;-66
2022/04/26 21:07:36;;;;;;;2.17;2.08;;;5.80;99.90;;;;;;4919910;29;20288;-66
2022/04/26 21:10:03;;;;;;;2.30;2.20;;;5.80;99.90;;;;;;4919855;29;20300;-66
2022/04/26 21:13:22;;;;;;;1.73;1.73;;;5.80;99.90;;;;;;4919859;29;20293;-66
2022/04/26 21:15:21;;;;;;;2.17;2.08;;;5.80;99.90;;;;;;4919491;29;20215;-66
2022/04/26 21:17:47;;;;;;;1.98;1.88;;;5.70;99.90;;;;;;4919900;29;20189;-66
2022/04/26 21:20:14;;;;;;;2.05;1.95;;;5.70;99.90;;;;;;4919394;29;20241;-67
2022/04/26 21:22:41;;;;;;;1.90;1.80;;;5.70;99.90;;;;;;4919077;29;20645;-68
2022/04/26 21:25:09;;;;;;;2.50;2.50;;;5.70;99.90;;;;;;4919382;29;20415;-69
2022/04/26 21:27:36;;;;;;;1.80;1.80;;;5.60;99.90;;;;;;4919258;29;20292;-69
2022/04/26 21:30:03;;;;;;;2.03;2.03;;;5.50;99.90;;;;;;4919261;29;20296;-69
2022/04/26 21:32:31;;;;;;;1.88;1.88;;;5.50;99.90;;;;;;4919270;29;20205;-69
2022/04/26 21:34:58;;;;;;;1.90;1.80;;;5.50;99.90;;;;;;4919220;29;20296;-69
2022/04/26 21:37:25;;;;;;;2.30;2.20;;;5.40;99.90;;;;;;4919173;29;20300;-69
2022/04/26 21:39:52;;;;;;;1.80;1.80;;;5.40;99.90;;;;;;4919031;29;20318;-69
2022/04/26 21:42:19;;;;;;;1.70;1.70;;;5.30;99.90;;;;;;4918669;29;20260;-69
2022/04/26 21:44:45;;;;;;;1.50;1.50;;;5.20;99.90;;;;;;4918869;29;20296;-69
2022/04/26 21:47:13;;;;;;;1.60;1.55;;;;;;;;;;4918307;29;20292;-69
